Time;durP1;ratioP1;P1;durP2;ratioP2;P2;SDS_P1;SDS_P2;PMS_P1;PMS_P2;Temp;Humidity;BMP_temperature;BMP_pressure;BME280_temperature;BME280_humidity;BME280_pressure;Samples;Min_cycle;Max_cycle;Signal;HPM_P1;HPM_P2
2021/06/25 00:00:05;;;;;;;27.85;16.60;;;;;;;;;;4437813;32;20157;-73
2021/06/25 00:02:30;;;;;;;30.25;18.10;;;;;;;;;;4436656;32;20203;-73
2021/06/25 00:04:55;;;;;;;30.13;19.10;;;;;;;;;;4436344;32;20200;-74
2021/06/25 00:07:20;;;;;;;30.92;19.05;;;;;;;;;;4436012;32;20225;-73
2021/06/25 00:09:45;;;;;;;29.23;18.20;;;;;;;;;;4435519;32;20176;-73
2021/06/25 00:12:11;;;;;;;26.73;17.42;;;;;;;;;;4435527;32;20527;-74
2021/06/25 00:14:37;;;;;;;28.52;18.23;;;;;;;;;;4436378;32;20298;-74
2021/06/25 00:17:02;;;;;;;29.92;18.40;;;;;;;;;;4436873;32;20184;-74
2021/06/25 00:19:28;;;;;;;32.78;19.52;;;;;;;;;;4436020;32;20133;-74
2021/06/25 00:21:53;;;;;;;26.70;17.60;;;;;;;;;;4437149;32;20165;-74
2021/06/25 00:24:18;;;;;;;26.67;17.83;;;;;;;;;;4435832;32;20512;-74
2021/06/25 00:26:43;;;;;;;28.93;17.83;;;;;;;;;;4436162;32;20130;-74
2021/06/25 00:29:08;;;;;;;26.25;16.52;;;;;;;;;;4437116;32;20204;-74
2021/06/25 00:31:36;;;;;;;28.73;17.15;;;;;;;;;;4436265;32;20155;-74
2021/06/25 00:34:01;;;;;;;26.83;16.80;;;;;;;;;;4434929;32;20153;-73
2021/06/25 00:36:26;;;;;;;28.00;18.12;;;;;;;;;;4437190;32;20528;-74
2021/06/25 00:38:51;;;;;;;31.35;18.90;;;;;;;;;;4435782;32;20530;-73
2021/06/25 00:41:16;;;;;;;28.97;17.33;;;;;;;;;;4439367;32;20168;-74
2021/06/25 00:43:42;;;;;;;32.95;18.73;;;;;;;;;;4424798;32;20720;-73
2021/06/25 00:46:07;;;;;;;32.15;19.77;;;;;;;;;;4439578;32;20292;-74
2021/06/25 00:48:32;;;;;;;33.60;19.87;;;;;;;;;;4439484;32;20228;-74
2021/06/25 00:50:57;;;;;;;34.63;19.80;;;;;;;;;;4440008;32;20210;-74
2021/06/25 00:53:22;;;;;;;32.95;18.65;;;;;;;;;;4438252;32;20160;-74
2021/06/25 00:55:48;;;;;;;31.12;19.48;;;;;;;;;;4424101;32;20173;-74
2021/06/25 00:58:17;;;;;;;35.33;19.40;;;;;;;;;;4438699;32;20156;-74
2021/06/25 01:00:43;;;;;;;34.63;20.15;;;;;;;;;;4425407;32;20184;-74
2021/06/25 01:03:08;;;;;;;33.67;20.60;;;;;;;;;;4439008;32;20142;-73
2021/06/25 01:05:34;;;;;;;36.97;21.37;;;;;;;;;;4424009;32;20236;-73
2021/06/25 01:07:59;;;;;;;34.55;19.42;;;;;;;;;;4438763;32;20136;-74
2021/06/25 01:10:25;;;;;;;38.20;21.08;;;;;;;;;;4438666;32;20134;-74
2021/06/25 01:12:50;;;;;;;33.53;20.35;;;;;;;;;;4438555;32;20134;-73
2021/06/25 01:15:15;;;;;;;33.08;19.40;;;;;;;;;;4438149;32;20226;-73
2021/06/25 01:17:42;;;;;;;38.30;21.45;;;;;;;;;;4439201;32;20542;-74
2021/06/25 01:20:12;;;;;;;36.35;20.50;;;;;;;;;;4423685;32;20170;-74
2021/06/25 01:22:41;;;;;;;32.42;19.40;;;;;;;;;;4438527;32;20634;-74
2021/06/25 01:25:07;;;;;;;33.80;19.73;;;;;;;;;;4437900;32;20233;-75
2021/06/25 01:27:33;;;;;;;34.78;21.12;;;;;;;;;;4439352;32;20137;-74
2021/06/25 01:29:59;;;;;;;33.33;20.90;;;;;;;;;;4437673;32;20180;-74
2021/06/25 01:32:24;;;;;;;32.22;19.37;;;;;;;;;;4439191;32;20154;-74
2021/06/25 01:34:50;;;;;;;30.98;19.12;;;;;;;;;;4437507;32;20355;-74
2021/06/25 01:37:15;;;;;;;33.00;19.45;;;;;;;;;;4423557;32;20165;-74
2021/06/25 01:39:40;;;;;;;34.97;20.52;;;;;;;;;;4437922;32;20133;-75
2021/06/25 01:42:06;;;;;;;35.92;19.52;;;;;;;;;;4423498;32;20216;-74
2021/06/25 01:44:31;;;;;;;34.28;19.40;;;;;;;;;;4438124;32;20209;-74
2021/06/25 01:46:57;;;;;;;36.35;20.67;;;;;;;;;;4439399;32;20159;-74
2021/06/25 01:49:22;;;;;;;39.55;22.30;;;;;;;;;;4423282;32;20647;-74
2021/06/25 01:51:48;;;;;;;37.20;22.17;;;;;;;;;;4422727;32;20598;-74
2021/06/25 01:54:13;;;;;;;37.30;22.70;;;;;;;;;;4423316;32;20161;-74
2021/06/25 01:56:38;;;;;;;41.25;22.45;;;;;;;;;;4438462;32;20201;-74
2021/06/25 01:59:04;;;;;;;42.88;22.17;;;;;;;;;;4438927;32;20589;-74
2021/06/25 02:01:29;;;;;;;38.90;22.08;;;;;;;;;;4437856;32;20133;-74
2021/06/25 02:03:58;;;;;;;35.05;21.45;;;;;;;;;;4423197;32;20248;-73
2021/06/25 02:06:23;;;;;;;37.53;21.80;;;;;;;;;;4437234;32;20158;-74
2021/06/25 02:08:48;;;;;;;36.85;21.58;;;;;;;;;;4438233;32;20188;-74
2021/06/25 02:11:14;;;;;;;35.08;20.92;;;;;;;;;;4424748;32;20169;-74
2021/06/25 02:13:39;;;;;;;38.25;21.42;;;;;;;;;;4423010;32;20162;-74
2021/06/25 02:16:05;;;;;;;36.17;21.90;;;;;;;;;;4423002;32;20487;-74
2021/06/25 02:18:30;;;;;;;37.13;22.35;;;;;;;;;;4438784;32;20137;-75
2021/06/25 02:20:55;;;;;;;37.00;21.87;;;;;;;;;;4423397;32;20201;-75
2021/06/25 02:23:21;;;;;;;39.20;21.95;;;;;;;;;;4424661;32;20196;-74
2021/06/25 02:25:46;;;;;;;34.95;22.62;;;;;;;;;;4422727;32;20222;-73
2021/06/25 02:28:11;;;;;;;41.42;23.67;;;;;;;;;;4437580;32;20519;-74
2021/06/25 02:30:36;;;;;;;40.70;23.27;;;;;;;;;;4422737;32;20188;-74
2021/06/25 02:33:01;;;;;;;40.08;23.35;;;;;;;;;;4436936;32;20142;-74
2021/06/25 02:35:27;;;;;;;35.78;21.48;;;;;;;;;;4437232;32;20176;-73
2021/06/25 02:37:55;;;;;;;34.17;21.50;;;;;;;;;;4424160;32;20174;-73
2021/06/25 02:40:21;;;;;;;36.05;22.20;;;;;;;;;;4436370;32;20142;-73
2021/06/25 02:42:46;;;;;;;33.50;20.23;;;;;;;;;;4422430;32;20551;-73
2021/06/25 02:45:11;;;;;;;31.40;19.77;;;;;;;;;;4422317;32;20587;-73
2021/06/25 02:47:37;;;;;;;35.47;20.75;;;;;;;;;;4436794;32;20176;-73
2021/06/25 02:50:04;;;;;;;31.30;19.58;;;;;;;;;;4422156;32;20226;-73
2021/06/25 02:52:29;;;;;;;33.80;21.30;;;;;;;;;;4436599;32;20555;-73
2021/06/25 02:54:54;;;;;;;39.95;22.00;;;;;;;;;;4437785;32;20140;-73
2021/06/25 02:57:19;;;;;;;34.22;21.20;;;;;;;;;;4422327;32;20169;-73
2021/06/25 02:59:45;;;;;;;36.97;21.80;;;;;;;;;;4436132;32;20458;-74
2021/06/25 03:02:10;;;;;;;33.35;22.13;;;;;;;;;;4437768;32;20150;-74
2021/06/25 03:04:35;;;;;;;33.78;19.90;;;;;;;;;;4437032;32;20149;-73
2021/06/25 03:07:00;;;;;;;31.95;20.85;;;;;;;;;;4437625;32;20630;-73
2021/06/25 03:09:26;;;;;;;32.53;19.33;;;;;;;;;;4438242;32;20203;-73
2021/06/25 03:11:51;;;;;;;33.83;21.37;;;;;;;;;;4437733;32;20138;-73
2021/06/25 03:14:16;;;;;;;33.92;20.23;;;;;;;;;;4437537;32;20176;-73
2021/06/25 03:16:41;;;;;;;30.65;19.42;;;;;;;;;;4422132;32;20232;-73
2021/06/25 03:19:06;;;;;;;32.50;19.92;;;;;;;;;;4437317;32;20157;-73
2021/06/25 03:21:31;;;;;;;34.03;19.50;;;;;;;;;;4436017;32;20196;-73
2021/06/25 03:23:57;;;;;;;28.05;17.10;;;;;;;;;;4436427;32;20654;-73
2021/06/25 03:26:22;;;;;;;27.33;16.80;;;;;;;;;;4422336;32;20181;-73
2021/06/25 03:28:48;;;;;;;29.20;18.12;;;;;;;;;;4436728;32;20560;-73
2021/06/25 03:31:13;;;;;;;31.98;20.75;;;;;;;;;;4437831;32;20138;-73
2021/06/25 03:33:38;;;;;;;29.55;18.90;;;;;;;;;;4437404;32;20186;-72
2021/06/25 03:36:03;;;;;;;26.05;16.80;;;;;;;;;;4439339;32;20270;-74
2021/06/25 03:38:30;;;;;;;27.08;18.20;;;;;;;;;;4438845;32;20153;-74
2021/06/25 03:40:55;;;;;;;25.67;17.40;;;;;;;;;;4437732;32;20168;-74
2021/06/25 03:43:21;;;;;;;26.62;16.58;;;;;;;;;;4423043;32;20458;-74
2021/06/25 03:45:46;;;;;;;32.05;18.33;;;;;;;;;;4437315;32;20169;-74
2021/06/25 03:48:11;;;;;;;27.30;18.92;;;;;;;;;;4422471;32;20158;-73
2021/06/25 03:50:36;;;;;;;29.20;18.15;;;;;;;;;;4437448;32;20150;-73
2021/06/25 03:53:02;;;;;;;28.45;18.42;;;;;;;;;;4437338;32;20138;-73
2021/06/25 03:55:27;;;;;;;27.58;18.52;;;;;;;;;;4421420;32;20295;-73
2021/06/25 03:57:52;;;;;;;25.12;18.58;;;;;;;;;;4437087;32;20164;-73
2021/06/25 04:00:18;;;;;;;27.13;17.90;;;;;;;;;;4436902;32;20201;-73
2021/06/25 04:02:44;;;;;;;28.98;18.45;;;;;;;;;;4435429;32;20259;-72
2021/06/25 04:05:09;;;;;;;25.83;17.60;;;;;;;;;;4422887;32;20270;-73
2021/06/25 04:07:35;;;;;;;27.05;17.50;;;;;;;;;;4436022;32;20129;-73
2021/06/25 04:10:01;;;;;;;31.73;18.67;;;;;;;;;;4421398;32;20180;-73
2021/06/25 04:12:27;;;;;;;27.98;18.48;;;;;;;;;;4435201;32;20228;-73
2021/06/25 04:14:52;;;;;;;29.50;17.50;;;;;;;;;;4436554;32;20149;-73
2021/06/25 04:17:17;;;;;;;27.17;17.40;;;;;;;;;;4435815;32;20161;-73
2021/06/25 04:19:42;;;;;;;27.20;18.00;;;;;;;;;;4421433;32;20204;-73
2021/06/25 04:22:07;;;;;;;26.33;17.40;;;;;;;;;;4436067;32;20229;-73
2021/06/25 04:24:32;;;;;;;27.42;19.50;;;;;;;;;;4435689;32;20244;-73
2021/06/25 04:26:58;;;;;;;29.27;18.48;;;;;;;;;;4435239;32;20233;-73
2021/06/25 04:29:23;;;;;;;27.77;18.55;;;;;;;;;;4435062;32;20297;-73
2021/06/25 04:31:52;;;;;;;32.10;18.95;;;;;;;;;;4435815;32;20172;-74
2021/06/25 04:34:18;;;;;;;25.73;17.17;;;;;;;;;;4435091;32;20138;-72
2021/06/25 04:36:43;;;;;;;31.27;18.92;;;;;;;;;;4437145;32;20142;-74
2021/06/25 04:39:08;;;;;;;28.48;17.83;;;;;;;;;;4436919;32;20194;-74
2021/06/25 04:41:34;;;;;;;28.00;19.20;;;;;;;;;;4437132;32;20172;-73
2021/06/25 04:43:59;;;;;;;31.80;18.50;;;;;;;;;;4435103;32;20566;-72
2021/06/25 04:46:24;;;;;;;30.27;17.87;;;;;;;;;;4437459;32;20161;-73
2021/06/25 04:48:49;;;;;;;28.03;19.30;;;;;;;;;;4436129;32;20133;-73
2021/06/25 04:51:14;;;;;;;31.50;19.40;;;;;;;;;;4434941;32;20552;-74
2021/06/25 04:53:39;;;;;;;32.80;20.40;;;;;;;;;;4436643;32;20271;-73
2021/06/25 04:56:05;;;;;;;26.87;18.20;;;;;;;;;;4435858;32;20183;-72
2021/06/25 04:58:30;;;;;;;30.60;18.23;;;;;;;;;;4436667;32;20233;-72
2021/06/25 05:00:59;;;;;;;28.55;18.37;;;;;;;;;;4435332;32;20137;-74
2021/06/25 05:03:24;;;;;;;25.15;18.05;;;;;;;;;;4421008;32;20187;-73
2021/06/25 05:05:49;;;;;;;24.90;17.65;;;;;;;;;;4436016;32;20158;-73
2021/06/25 05:08:14;;;;;;;25.40;16.43;;;;;;;;;;4434543;32;20180;-73
2021/06/25 05:10:39;;;;;;;28.70;18.42;;;;;;;;;;4434724;32;20322;-73
2021/06/25 05:13:05;;;;;;;28.12;18.48;;;;;;;;;;4422559;32;20755;-73
2021/06/25 05:15:30;;;;;;;25.73;17.12;;;;;;;;;;4435405;32;20218;-73
2021/06/25 05:17:55;;;;;;;27.45;17.70;;;;;;;;;;4435725;32;20142;-74
2021/06/25 05:20:21;;;;;;;29.27;16.98;;;;;;;;;;4434621;32;20145;-73
2021/06/25 05:22:46;;;;;;;28.87;20.00;;;;;;;;;;4435543;32;20242;-73
2021/06/25 05:25:12;;;;;;;26.95;16.95;;;;;;;;;;4434684;32;20133;-74
2021/06/25 05:27:37;;;;;;;24.73;16.80;;;;;;;;;;4436166;32;20643;-74
2021/06/25 05:30:03;;;;;;;32.40;19.05;;;;;;;;;;4425200;32;20237;-74
2021/06/25 05:32:28;;;;;;;29.98;18.23;;;;;;;;;;4438923;32;20221;-74
2021/06/25 05:34:53;;;;;;;28.50;18.80;;;;;;;;;;4437909;32;20137;-74
2021/06/25 05:37:18;;;;;;;32.45;17.77;;;;;;;;;;4438164;32;20241;-74
2021/06/25 05:39:44;;;;;;;32.30;18.80;;;;;;;;;;4438375;32;20129;-74
2021/06/25 05:42:09;;;;;;;30.12;18.80;;;;;;;;;;4437114;32;20184;-73
2021/06/25 05:44:35;;;;;;;30.83;19.10;;;;;;;;;;4437157;32;20146;-73
2021/06/25 05:47:00;;;;;;;32.03;19.92;;;;;;;;;;4423183;32;20177;-74
2021/06/25 05:49:26;;;;;;;32.30;21.10;;;;;;;;;;4437372;32;20279;-74
2021/06/25 05:51:51;;;;;;;33.65;19.45;;;;;;;;;;4438790;32;20134;-73
2021/06/25 05:54:16;;;;;;;34.97;22.23;;;;;;;;;;4437242;32;20256;-73
2021/06/25 05:56:42;;;;;;;32.25;20.83;;;;;;;;;;4437795;32;20315;-73
2021/06/25 05:59:07;;;;;;;31.75;19.65;;;;;;;;;;4439186;32;20168;-73
2021/06/25 06:01:32;;;;;;;36.50;21.92;;;;;;;;;;4436917;32;20146;-75
2021/06/25 06:03:57;;;;;;;36.08;23.40;;;;;;;;;;4436744;32;20149;-73
2021/06/25 06:06:22;;;;;;;38.55;22.35;;;;;;;;;;4436690;32;20177;-73
2021/06/25 06:08:48;;;;;;;36.88;23.45;;;;;;;;;;4438229;32;20240;-73
2021/06/25 06:11:13;;;;;;;41.72;23.08;;;;;;;;;;4434864;32;20732;-73
2021/06/25 06:13:38;;;;;;;33.67;21.48;;;;;;;;;;4427502;32;20623;-73
2021/06/25 06:16:03;;;;;;;39.35;22.35;;;;;;;;;;4424361;32;20523;-73
2021/06/25 06:18:34;;;;;;;36.25;23.08;;;;;;;;;;4437161;32;20237;-74
2021/06/25 06:20:59;;;;;;;40.38;23.62;;;;;;;;;;4436900;32;20133;-74
2021/06/25 06:31:41;;;;;;;34.72;22.15;;;;;;;;;;4431328;32;20257;-73
2021/06/25 06:34:09;;;;;;;43.65;27.90;;;;;;;;;;4430085;32;20215;-72
2021/06/25 06:36:40;;;;;;;39.08;21.90;;;;;;;;;;4429139;32;20175;-72
2021/06/25 06:39:06;;;;;;;40.92;23.65;;;;;;;;;;4414292;32;20204;-74
2021/06/25 06:41:32;;;;;;;38.05;23.33;;;;;;;;;;4429499;32;20149;-72
2021/06/25 06:43:57;;;;;;;39.25;24.00;;;;;;;;;;4429130;32;20192;-73
2021/06/25 06:46:22;;;;;;;40.25;24.52;;;;;;;;;;4431661;32;20306;-72
2021/06/25 06:48:48;;;;;;;39.97;22.62;;;;;;;;;;4432146;32;20849;-73
2021/06/25 06:51:13;;;;;;;39.50;23.83;;;;;;;;;;4430968;32;20164;-74
2021/06/25 06:53:45;;;;;;;42.08;25.50;;;;;;;;;;4431005;32;20188;-74
2021/06/25 06:56:11;;;;;;;41.10;23.65;;;;;;;;;;4431800;32;20184;-73
2021/06/25 06:58:36;;;;;;;41.17;24.58;;;;;;;;;;4415261;32;20165;-72
2021/06/25 07:01:01;;;;;;;42.05;25.20;;;;;;;;;;4428095;32;20141;-73
2021/06/25 07:03:26;;;;;;;41.45;24.27;;;;;;;;;;4407981;32;20224;-73
2021/06/25 07:05:52;;;;;;;44.30;24.92;;;;;;;;;;4428615;32;20256;-73
2021/06/25 07:08:18;;;;;;;37.95;23.67;;;;;;;;;;4430879;32;20226;-72
2021/06/25 07:10:43;;;;;;;39.60;21.52;;;;;;;;;;4433574;32;20146;-73
2021/06/25 07:13:08;;;;;;;33.85;20.30;;;;;;;;;;4429015;32;20212;-72
2021/06/25 07:15:33;;;;;;;30.30;19.80;;;;;;;;;;4428449;32;20165;-73
2021/06/25 07:17:59;;;;;;;32.65;18.83;;;;;;;;;;4421549;32;20638;-72
2021/06/25 07:20:24;;;;;;;28.10;18.37;;;;;;;;;;4429926;32;20681;-73
2021/06/25 07:22:49;;;;;;;27.95;17.75;;;;;;;;;;4425415;32;20160;-72
2021/06/25 07:25:14;;;;;;;33.13;19.53;;;;;;;;;;4414874;32;20268;-74
2021/06/25 07:27:41;;;;;;;34.17;20.90;;;;;;;;;;4418049;32;20245;-72
2021/06/25 07:30:07;;;;;;;29.33;19.90;;;;;;;;;;4416270;32;20146;-72
2021/06/25 07:32:32;;;;;;;34.08;20.45;;;;;;;;;;4430047;32;20149;-72
2021/06/25 07:34:57;;;;;;;33.45;20.10;;;;;;;;;;4429256;32;20623;-72
2021/06/25 07:37:23;;;;;;;33.28;19.83;;;;;;;;;;4414370;32;20226;-72
2021/06/25 07:39:48;;;;;;;32.40;20.05;;;;;;;;;;4421172;32;20145;-73
2021/06/25 07:42:13;;;;;;;28.05;18.52;;;;;;;;;;4430428;32;20198;-72
2021/06/25 07:44:39;;;;;;;29.23;18.67;;;;;;;;;;4429271;32;20206;-72
2021/06/25 07:47:04;;;;;;;30.52;20.10;;;;;;;;;;4430049;32;20180;-71
2021/06/25 07:49:29;;;;;;;27.13;17.53;;;;;;;;;;4429086;32;20898;-72
2021/06/25 07:51:54;;;;;;;28.42;17.90;;;;;;;;;;4414839;32;20381;-73
2021/06/25 07:54:20;;;;;;;28.30;17.35;;;;;;;;;;4414344;32;20760;-72
2021/06/25 07:56:45;;;;;;;28.90;16.90;;;;;;;;;;4429658;32;20175;-72
2021/06/25 07:59:10;;;;;;;30.02;17.17;;;;;;;;;;4428193;32;20145;-73
2021/06/25 08:01:36;;;;;;;26.87;17.08;;;;;;;;;;4428511;32;20205;-72
2021/06/25 08:04:01;;;;;;;28.85;17.05;;;;;;;;;;4428391;32;20252;-72
2021/06/25 08:06:28;;;;;;;25.17;15.88;;;;;;;;;;4428564;32;20256;-72
2021/06/25 08:08:53;;;;;;;26.12;17.42;;;;;;;;;;4429511;32;20327;-71
2021/06/25 08:11:18;;;;;;;24.98;15.15;;;;;;;;;;4428603;32;20153;-72
2021/06/25 08:13:43;;;;;;;24.23;15.80;;;;;;;;;;4429728;32;20145;-73
2021/06/25 08:16:08;;;;;;;29.48;17.23;;;;;;;;;;4430826;32;20240;-73
2021/06/25 08:18:34;;;;;;;25.23;16.33;;;;;;;;;;4427511;32;20154;-73
2021/06/25 08:20:59;;;;;;;25.92;15.30;;;;;;;;;;4408500;32;20243;-72
2021/06/25 08:23:24;;;;;;;27.77;16.97;;;;;;;;;;4428665;32;20219;-72
2021/06/25 08:25:49;;;;;;;26.02;16.08;;;;;;;;;;4406216;32;20268;-73
2021/06/25 08:28:14;;;;;;;24.27;15.67;;;;;;;;;;4417790;32;20173;-73
2021/06/25 08:30:40;;;;;;;28.73;16.52;;;;;;;;;;4418397;32;20347;-72
2021/06/25 08:33:05;;;;;;;24.87;16.08;;;;;;;;;;4432338;32;20577;-73
2021/06/25 08:35:30;;;;;;;27.48;15.77;;;;;;;;;;4420179;32;20265;-72
2021/06/25 08:37:55;;;;;;;26.58;16.65;;;;;;;;;;4435332;32;20172;-72
2021/06/25 08:40:23;;;;;;;27.58;17.40;;;;;;;;;;4435616;32;20165;-73
2021/06/25 08:42:48;;;;;;;24.12;16.30;;;;;;;;;;4436150;32;20586;-73
2021/06/25 08:45:14;;;;;;;26.92;17.70;;;;;;;;;;4422356;32;20275;-73
2021/06/25 08:47:44;;;;;;;27.90;18.20;;;;;;;;;;4434532;32;20248;-73
2021/06/25 08:50:10;;;;;;;26.58;17.92;;;;;;;;;;4436145;32;20575;-74
2021/06/25 08:52:35;;;;;;;29.02;18.80;;;;;;;;;;4436332;32;20453;-73
2021/06/25 08:55:00;;;;;;;29.08;19.70;;;;;;;;;;4411687;32;20174;-73
2021/06/25 08:57:26;;;;;;;29.05;18.98;;;;;;;;;;4427292;32;20145;-73
2021/06/25 08:59:51;;;;;;;29.77;20.17;;;;;;;;;;4420625;32;20188;-74
2021/06/25 09:02:18;;;;;;;30.33;19.20;;;;;;;;;;4432403;32;20138;-74
2021/06/25 09:04:45;;;;;;;28.77;19.75;;;;;;;;;;4437644;32;20236;-73
2021/06/25 09:07:12;;;;;;;29.37;19.67;;;;;;;;;;4422882;32;20230;-74
2021/06/25 09:09:37;;;;;;;30.02;19.35;;;;;;;;;;4437346;32;20177;-75
2021/06/25 09:12:09;;;;;;;27.20;18.85;;;;;;;;;;4439322;32;20138;-73
2021/06/25 09:14:53;;;;;;;27.27;19.85;;;;;;;;;;4422638;32;20176;-74
2021/06/25 09:17:18;;;;;;;26.98;19.10;;;;;;;;;;4438270;32;20167;-73
2021/06/25 09:19:43;;;;;;;27.58;20.00;;;;;;;;;;4424631;32;20169;-73
2021/06/25 09:22:09;;;;;;;31.75;21.37;;;;;;;;;;4438540;32;20241;-73
2021/06/25 09:24:34;;;;;;;29.98;22.33;;;;;;;;;;4437408;32;20274;-73
2021/06/25 09:27:04;;;;;;;28.58;19.67;;;;;;;;;;4437242;32;20232;-73
2021/06/25 09:29:34;;;;;;;29.95;20.75;;;;;;;;;;4423015;32;20567;-73
2021/06/25 09:32:07;;;;;;;26.23;20.50;;;;;;;;;;4437792;32;20142;-74
2021/06/25 09:34:33;;;;;;;28.83;21.27;;;;;;;;;;4422760;32;20164;-74
2021/06/25 09:37:03;;;;;;;30.52;22.60;;;;;;;;;;4424866;32;20166;-74
2021/06/25 09:39:28;;;;;;;29.23;20.15;;;;;;;;;;4438274;32;20161;-74
2021/06/25 09:41:53;;;;;;;28.95;20.48;;;;;;;;;;4438540;32;20164;-73
2021/06/25 09:44:19;;;;;;;29.40;20.30;;;;;;;;;;4437083;32;20163;-73
2021/06/25 09:46:44;;;;;;;29.83;19.62;;;;;;;;;;4437324;32;20177;-73
2021/06/25 09:49:11;;;;;;;29.20;20.90;;;;;;;;;;4435413;32;20200;-73
2021/06/25 09:51:37;;;;;;;32.15;21.80;;;;;;;;;;4421395;32;20240;-74
2021/06/25 09:54:02;;;;;;;37.22;26.10;;;;;;;;;;4420787;32;20134;-72
2021/06/25 09:56:28;;;;;;;43.85;31.67;;;;;;;;;;4421261;32;20582;-72
2021/06/25 09:59:21;;;;;;;46.03;35.15;;;;;;;;;;4422305;32;20165;-72
2021/06/25 10:01:47;;;;;;;48.95;37.17;;;;;;;;;;4421663;32;20620;-73
2021/06/25 10:04:12;;;;;;;50.33;39.28;;;;;;;;;;4422163;32;20176;-73
2021/06/25 10:06:37;;;;;;;52.38;38.90;;;;;;;;;;4419968;32;20256;-73
2021/06/25 10:09:04;;;;;;;52.28;36.47;;;;;;;;;;4422477;32;20225;-73
2021/06/25 10:11:30;;;;;;;52.42;37.42;;;;;;;;;;4421391;32;20230;-73
2021/06/25 10:13:57;;;;;;;58.25;39.20;;;;;;;;;;4419404;32;20627;-73
2021/06/25 10:16:23;;;;;;;56.60;39.35;;;;;;;;;;4421061;32;20303;-73
2021/06/25 10:18:49;;;;;;;60.45;41.97;;;;;;;;;;4422259;32;20277;-72
2021/06/25 10:21:17;;;;;;;63.72;45.35;;;;;;;;;;4421523;32;20142;-74
2021/06/25 10:23:46;;;;;;;62.65;44.70;;;;;;;;;;4422271;32;20169;-74
2021/06/25 10:26:13;;;;;;;65.03;42.97;;;;;;;;;;4419620;32;20539;-72
2021/06/25 10:28:39;;;;;;;71.15;49.13;;;;;;;;;;4415272;32;20193;-73
2021/06/25 10:31:04;;;;;;;60.35;42.38;;;;;;;;;;4410127;32;20199;-73
2021/06/25 10:33:30;;;;;;;51.35;35.45;;;;;;;;;;4422144;32;20138;-73
2021/06/25 10:35:56;;;;;;;51.22;37.15;;;;;;;;;;4425312;32;20506;-73
2021/06/25 10:38:24;;;;;;;56.42;38.70;;;;;;;;;;4435675;32;20180;-73
2021/06/25 10:40:54;;;;;;;62.42;40.33;;;;;;;;;;4438215;32;20181;-73
2021/06/25 10:43:38;;;;;;;61.55;40.38;;;;;;;;;;4436195;32;20153;-72
2021/06/25 10:46:03;;;;;;;59.20;38.33;;;;;;;;;;4437241;32;20243;-72
2021/06/25 10:48:39;;;;;;;46.67;30.92;;;;;;;;;;4436696;32;20137;-73
2021/06/25 10:51:19;;;;;;;42.10;29.30;;;;;;;;;;4421401;32;20586;-72
2021/06/25 10:54:03;;;;;;;40.78;27.02;;;;;;;;;;4437284;32;20157;-72
2021/06/25 10:56:28;;;;;;;38.40;24.95;;;;;;;;;;4435105;32;20184;-72
2021/06/25 10:59:12;;;;;;;36.40;25.65;;;;;;;;;;4436025;32;20142;-73
2021/06/25 11:01:48;;;;;;;43.55;29.60;;;;;;;;;;4422255;32;20253;-73
2021/06/25 11:04:33;;;;;;;41.50;26.48;;;;;;;;;;4435615;32;20137;-73
2021/06/25 11:06:59;;;;;;;36.47;24.23;;;;;;;;;;4435525;32;20192;-72
2021/06/25 11:09:27;;;;;;;35.58;23.00;;;;;;;;;;4422003;32;20478;-73
2021/06/25 11:12:11;;;;;;;32.40;19.75;;;;;;;;;;4437022;32;20141;-73
2021/06/25 11:14:36;;;;;;;26.52;19.45;;;;;;;;;;4437071;32;20259;-73
2021/06/25 11:17:02;;;;;;;25.98;16.52;;;;;;;;;;4435803;32;20142;-73
2021/06/25 11:19:37;;;;;;;31.85;20.23;;;;;;;;;;4435457;32;20257;-72
2021/06/25 11:22:03;;;;;;;31.00;20.95;;;;;;;;;;4436564;32;20183;-73
2021/06/25 11:24:48;;;;;;;33.70;22.73;;;;;;;;;;4423140;32;20182;-72
2021/06/25 11:27:13;;;;;;;34.88;22.17;;;;;;;;;;4435791;32;20202;-73
2021/06/25 11:29:43;;;;;;;30.62;20.45;;;;;;;;;;4438170;32;20157;-73
2021/06/25 11:32:09;;;;;;;26.48;19.67;;;;;;;;;;4423391;32;20293;-73
2021/06/25 11:34:35;;;;;;;27.37;19.65;;;;;;;;;;4433517;32;20263;-73
2021/06/25 11:37:00;;;;;;;28.00;19.80;;;;;;;;;;4435193;32;20190;-72
2021/06/25 11:39:30;;;;;;;19.92;14.70;;;;;;;;;;4436438;32;20579;-72
2021/06/25 11:41:59;;;;;;;19.90;13.93;;;;;;;;;;4435440;32;20159;-74
2021/06/25 11:44:25;;;;;;;20.00;14.10;;;;;;;;;;4421280;32;20594;-73
2021/06/25 11:46:53;;;;;;;18.98;13.27;;;;;;;;;;4421601;32;20252;-73
2021/06/25 11:49:18;;;;;;;19.58;12.98;;;;;;;;;;4436450;32;20239;-74
2021/06/25 11:51:45;;;;;;;18.90;13.50;;;;;;;;;;4435987;32;20141;-73
2021/06/25 11:54:11;;;;;;;19.83;12.90;;;;;;;;;;4435293;32;20180;-72
2021/06/25 11:56:37;;;;;;;19.65;13.35;;;;;;;;;;4435411;32;20213;-73
2021/06/25 11:59:04;;;;;;;19.75;14.43;;;;;;;;;;4435476;32;20134;-73
2021/06/25 12:01:30;;;;;;;24.02;15.07;;;;;;;;;;4436864;32;20173;-73
2021/06/25 12:03:56;;;;;;;20.92;14.87;;;;;;;;;;4421151;32;20145;-73
2021/06/25 12:06:21;;;;;;;21.23;14.07;;;;;;;;;;4434422;32;20571;-73
2021/06/25 12:08:57;;;;;;;19.85;14.52;;;;;;;;;;4436615;32;20169;-73
2021/06/25 12:11:23;;;;;;;18.67;13.93;;;;;;;;;;4436268;32;20152;-73
2021/06/25 12:13:56;;;;;;;20.85;15.90;;;;;;;;;;4436590;32;20168;-73
2021/06/25 12:16:21;;;;;;;21.02;14.35;;;;;;;;;;4419250;32;20141;-73
2021/06/25 12:18:46;;;;;;;20.73;15.10;;;;;;;;;;4421085;32;20248;-73
2021/06/25 12:21:13;;;;;;;21.08;16.20;;;;;;;;;;4421100;32;20191;-73
2021/06/25 12:23:38;;;;;;;23.15;16.67;;;;;;;;;;4424818;32;20218;-74
2021/06/25 12:26:18;;;;;;;17.95;14.43;;;;;;;;;;4422522;32;20173;-73
2021/06/25 12:28:43;;;;;;;16.83;13.55;;;;;;;;;;4422684;32;20196;-73
2021/06/25 12:31:15;;;;;;;16.90;12.25;;;;;;;;;;4432893;32;20149;-73
2021/06/25 12:33:40;;;;;;;17.12;10.85;;;;;;;;;;4424838;32;20153;-73
2021/06/25 12:36:06;;;;;;;14.83;10.40;;;;;;;;;;4421983;32;20218;-72
2021/06/25 12:38:31;;;;;;;14.40;9.70;;;;;;;;;;4421377;32;20918;-73
2021/06/25 12:40:57;;;;;;;13.90;9.90;;;;;;;;;;4435911;32;20165;-73
2021/06/25 12:43:31;;;;;;;16.10;11.35;;;;;;;;;;4423046;32;20264;-72
2021/06/25 12:46:02;;;;;;;19.00;14.27;;;;;;;;;;4439305;32;20145;-73
2021/06/25 12:48:29;;;;;;;21.40;14.98;;;;;;;;;;4437720;32;20169;-73
2021/06/25 12:50:56;;;;;;;24.15;16.40;;;;;;;;;;4439588;32;20137;-73
2021/06/25 12:53:27;;;;;;;21.77;15.35;;;;;;;;;;4423873;32;20645;-73
2021/06/25 12:55:52;;;;;;;26.77;17.65;;;;;;;;;;4438768;32;20543;-72
2021/06/25 12:58:19;;;;;;;25.58;16.85;;;;;;;;;;4423310;32;20237;-72
2021/06/25 13:00:46;;;;;;;24.67;17.10;;;;;;;;;;4424827;32;20191;-72
2021/06/25 13:03:11;;;;;;;25.73;17.00;;;;;;;;;;4438922;32;20171;-72
2021/06/25 13:05:37;;;;;;;23.58;16.60;;;;;;;;;;4439057;32;20187;-72
2021/06/25 13:08:13;;;;;;;21.55;14.82;;;;;;;;;;4422658;32;20249;-73
2021/06/25 13:10:38;;;;;;;22.23;14.77;;;;;;;;;;4422748;32;20172;-73
2021/06/25 13:13:17;;;;;;;23.27;15.32;;;;;;;;;;4423292;32;20319;-73
2021/06/25 13:15:45;;;;;;;25.33;15.43;;;;;;;;;;4439260;32;20215;-73
2021/06/25 13:18:10;;;;;;;29.20;17.95;;;;;;;;;;4423066;32;20196;-73
2021/06/25 13:20:54;;;;;;;31.02;17.37;;;;;;;;;;4422647;32;20161;-73
2021/06/25 13:23:21;;;;;;;28.70;17.25;;;;;;;;;;4437506;32;20160;-73
2021/06/25 13:25:46;;;;;;;25.52;16.35;;;;;;;;;;4423626;32;20194;-73
2021/06/25 13:28:13;;;;;;;25.25;15.57;;;;;;;;;;4437673;32;20126;-74
2021/06/25 13:30:40;;;;;;;19.75;14.02;;;;;;;;;;4437036;32;20522;-74
2021/06/25 13:33:09;;;;;;;22.70;13.88;;;;;;;;;;4437636;32;20129;-74
2021/06/25 13:35:38;;;;;;;21.02;12.88;;;;;;;;;;4436978;32;20198;-74
2021/06/25 13:38:14;;;;;;;21.25;13.68;;;;;;;;;;4424537;32;20487;-73
2021/06/25 13:40:49;;;;;;;22.70;15.45;;;;;;;;;;4437416;32;20133;-72
2021/06/25 13:43:15;;;;;;;21.80;14.85;;;;;;;;;;4438802;32;20129;-72
2021/06/25 13:45:41;;;;;;;23.45;15.48;;;;;;;;;;4438294;32;20141;-72
2021/06/25 13:48:18;;;;;;;23.77;16.73;;;;;;;;;;4436065;32;20130;-73
2021/06/25 13:50:44;;;;;;;25.02;16.30;;;;;;;;;;4436512;32;20136;-72
2021/06/25 13:53:10;;;;;;;32.75;20.00;;;;;;;;;;4433166;32;20563;-73
2021/06/25 13:55:35;;;;;;;32.05;19.80;;;;;;;;;;4432717;32;20145;-74
2021/06/25 13:58:02;;;;;;;31.42;22.08;;;;;;;;;;4425395;32;20134;-72
2021/06/25 14:00:30;;;;;;;32.15;21.98;;;;;;;;;;4424213;32;20570;-73
2021/06/25 14:02:56;;;;;;;34.45;22.42;;;;;;;;;;4437036;32;20152;-74
2021/06/25 14:05:21;;;;;;;32.72;22.30;;;;;;;;;;4436366;32;20138;-73
2021/06/25 14:08:00;;;;;;;34.22;23.00;;;;;;;;;;4436676;32;20574;-73
2021/06/25 14:10:25;;;;;;;28.00;19.90;;;;;;;;;;4436929;32;20132;-73
2021/06/25 14:12:51;;;;;;;29.20;19.77;;;;;;;;;;4438418;32;20423;-74
2021/06/25 14:15:16;;;;;;;29.17;20.15;;;;;;;;;;4438172;32;20266;-74
2021/06/25 14:17:42;;;;;;;30.08;19.55;;;;;;;;;;4436155;32;20161;-73
2021/06/25 14:20:08;;;;;;;30.33;20.40;;;;;;;;;;4436302;32;20203;-73